Terminal Aerodrome Forecast
Issued by NWS

Home | Current Version | Previous Version | Text Only | Print | Product List | Glossary On
Versions: 1 2 3 4 5 6 7 8 9 10 11 12 13 14 15 16 17 18
000
FTUS46 KLOX 041008 AAA
TAFLGB
TAF AMD
KLGB 041008Z 0410/0506 VRB03KT P6SM SCT200
     FM041900 18008KT P6SM SCT150
     FM050000 30008KT P6SM SCT150
     FM050500 VRB03KT P6SM SCT150=

USA.gov is the U.S. government's official web portal to all federal, state and local government web resources and services.